Terminal Aerodrome Forecast
Issued by NWS Cleveland, OH

Home | Current Version | Previous Version | Text Only | Print | Product List | Glossary Off
Versions: 1 2 3 4 5 6 7 8 9 10 11 12 13 14 15 16 17 18 19 20 21 22

000
FTUS41 KCLE 130700 AAA
TAFCAK
TAF AMD
KCAK 130744Z 1308/1406 25005KT 6SM BR OVC028
     FM131200 27010KT P6SM VCSH BKN022 OVC030
     FM131500 27010G20KT P6SM BKN035
     FM132000 32008KT P6SM BKN035
     FM132200 36005KT P6SM BKN050=

USA.gov is the U.S. government's official web portal to all federal, state and local government web resources and services.